Bismarck, ND (58501)

2:11 PM CDT on October 01, 2014 (GMT -0500)
Highland Acres | Change Station
CLOSE
Current Station
Personal Weather Station
Location: Bismarck, ND
Elevation: 1713 ft
Nearby Weather Stations

Elev 1713 ft 46.81 °N, 100.81 °W | Updated 9 minutes ago

Overcast
Overcast
60.1 °F
Feels Like 60.1 °F
N
6.3
Wind Variable Wind from WNW

Today
High -- | Low -- °F
--% Chance of Precip.
Yesterday
High -- | Low -- °F
Precip. -- in
7:41 AM 7:22 PM
Waxing Crescent, 50% visible
Pressure 29.73 in
Visibility 10.0 miles
Clouds Few 3100 ft
Overcast 4200 ft
Dew Point 51 °F
Humidity 72%
Rainfall 0.00 in
Snow Depth Not available.
UV 2 out of 12
Pollen 1.50 out of 12
Air Quality Not available.
Flu Activity Not available.
METAR KBIS 011852Z 28011G20KT 10SM FEW031 OVC042 16/09 A2973 RMK AO2 PK WND 29026/1826 SLP068 T01560094

More Conditions Fewer Conditions

Pressure 29.73 in
Visibility 10.0 miles
Clouds Few 3100 ft
Overcast 4200 ft
Dew Point 51 °F
Humidity 72%
Rainfall 0.00 in
Snow Depth Not available.
UV 2 out of 12
Pollen 1.50 out of 12
Air Quality Not available.
Flu Activity Not available.
METAR KBIS 011852Z 28011G20KT 10SM FEW031 OVC042 16/09 A2973 RMK AO2 PK WND 29026/1826 SLP068 T01560094

More Conditions Fewer Conditions

10-Day Weather Forecast

Almanac

Astronomy

Oct. 01, 2014 Rise Set
Actual Time 7:41 AM CDT 7:22 PM CDT
Civil Twilight 7:11 AM CDT 7:52 PM CDT
Nautical Twilight 6:36 AM CDT 8:28 PM CDT
Astronomical Twilight 6:00 AM CDT 9:03 PM CDT
Moon 3:00 PM CDT No Moon Set
Length of Visible Light 12h 41m
Length of Day
11h 40m
Tomorrow will be 3m 20s shorter.
Waxing Crescent, 50% of the Moon is Illuminated
Today
Waxing Crescent
Oct 1
First Quarter
Oct 8
Full
Oct 15
Last Quarter
Oct 23
New

Today's Extremes

State Highs State Lows

Community

WunderPhotos

Upload Photos

1,758,010 photos uploaded!

WunderBlogs® & News

Nearby

Snow Depth

Station Depth Elevation
No new snow has been reported.

Earthquake Activity

City Distance Mag. Time & Date
No recent earthquake activity has been reported nearby.
Minimum magnitude displayed is 2.5.

Coastal Water Temperatures

Place Temperature
No Stations Reporting

Nearby Weather Stations